createdAt,value
2022-08-14T00:03:36.629Z,69.89
2022-08-14T00:08:45.174Z,69.39
2022-08-14T00:13:37.516Z,69.39
2022-08-14T00:19:05.453Z,70.50
2022-08-14T00:23:37.392Z,70.70
2022-08-14T00:28:36.822Z,71.00
2022-08-14T00:33:50.852Z,71.63
2022-08-14T00:39:47.642Z,72.44
2022-08-14T00:44:47.567Z,72.77
2022-08-14T00:49:47.483Z,73.18
2022-08-14T00:54:47.456Z,73.71
2022-08-14T00:59:47.405Z,73.81
2022-08-14T01:04:53.895Z,74.01
2022-08-14T01:09:48.297Z,74.15
2022-08-14T01:14:47.226Z,74.85
2022-08-14T01:19:48.079Z,75.26
2022-08-14T01:24:47.146Z,75.56
2022-08-14T01:30:00.863Z,75.35
2022-08-14T01:35:20.262Z,75.66
2022-08-14T01:39:47.975Z,75.46
2022-08-14T01:44:49.886Z,75.86
2022-08-14T01:50:01.161Z,75.96
2022-08-14T01:54:58.012Z,75.66
2022-08-14T01:59:47.744Z,75.96
2022-08-14T02:04:56.819Z,76.03
2022-08-14T02:09:55.888Z,75.62
2022-08-14T02:14:59.186Z,75.92
2022-08-14T02:19:47.526Z,75.18
2022-08-14T02:24:47.887Z,75.59
2022-08-14T02:30:00.413Z,75.29
2022-08-14T02:34:47.342Z,75.38
2022-08-14T02:39:46.323Z,75.68
2022-08-14T02:44:49.167Z,75.38
2022-08-14T02:49:46.191Z,75.68
2022-08-14T02:54:46.120Z,75.89
2022-08-14T02:59:46.087Z,76.59
2022-08-14T03:04:46.022Z,77.23
2022-08-14T03:10:26.851Z,77.23
2022-08-14T03:14:46.902Z,77.23
2022-08-14T03:19:45.861Z,77.33
2022-08-14T03:24:46.798Z,77.97
2022-08-14T03:29:46.751Z,78.51
2022-08-14T03:34:48.389Z,79.32
2022-08-14T03:39:46.683Z,79.08
2022-08-14T03:45:18.633Z,79.32
2022-08-14T03:49:50.032Z,79.52
2022-08-14T03:54:45.479Z,80.87
2022-08-14T03:59:46.433Z,80.77
2022-08-14T04:04:45.363Z,80.32
2022-08-14T04:09:46.328Z,80.43
2022-08-14T04:14:45.650Z,79.72
2022-08-14T04:19:45.216Z,80.22
2022-08-14T04:24:45.166Z,80.46
2022-08-14T04:29:45.325Z,81.17
2022-08-14T04:34:45.489Z,81.47
2022-08-14T04:39:46.686Z,80.80
2022-08-14T04:44:44.914Z,80.94
2022-08-14T04:49:56.729Z,81.15
2022-08-14T04:54:45.870Z,81.45
2022-08-14T04:59:44.743Z,81.51
2022-08-14T05:04:45.194Z,80.90
2022-08-14T05:09:47.869Z,80.90
2022-08-14T05:14:47.184Z,79.96
2022-08-14T05:21:55.482Z,79.96
2022-08-14T05:24:45.501Z,79.82
2022-08-14T05:29:44.449Z,78.88
2022-08-14T05:34:45.885Z,78.03
2022-08-14T05:39:44.371Z,78.23
2022-08-14T05:44:46.093Z,78.40
2022-08-14T05:49:44.222Z,76.98
2022-08-14T05:54:44.152Z,75.51
2022-08-14T05:59:44.108Z,73.77
2022-08-14T06:04:44.039Z,73.30
2022-08-14T06:09:43.984Z,71.26
2022-08-14T06:14:45.014Z,70.62
2022-08-14T06:19:43.881Z,70.19
2022-08-14T06:24:44.078Z,69.73
2022-08-14T06:29:43.776Z,68.40
2022-08-14T06:35:04.237Z,67.73
2022-08-14T06:46:34.453Z,64.84
2022-08-14T06:51:26.416Z,64.88
2022-08-14T06:56:26.381Z,64.75
2022-08-14T07:01:27.477Z,64.12
2022-08-14T07:06:46.568Z,62.40
2022-08-14T07:11:26.171Z,60.88
2022-08-14T07:16:27.398Z,61.22
2022-08-14T07:21:25.116Z,59.78
2022-08-14T07:26:25.097Z,58.16
2022-08-14T07:31:24.957Z,57.44
2022-08-14T07:36:27.715Z,55.90
2022-08-14T07:41:33.517Z,54.32
2022-08-14T07:46:29.191Z,53.80
2022-08-14T07:51:26.109Z,53.99
2022-08-14T07:56:46.900Z,55.68
2022-08-14T08:01:25.777Z,55.43
2022-08-14T08:06:24.611Z,54.97
2022-08-14T08:11:24.602Z,53.86
2022-08-14T08:16:24.539Z,52.75
2022-08-14T08:21:26.988Z,53.81
2022-08-14T08:26:24.429Z,52.11
2022-08-14T08:31:24.376Z,51.99
2022-08-14T08:36:25.303Z,51.79
2022-08-14T08:41:24.268Z,50.98
2022-08-14T08:46:24.367Z,50.95
2022-08-14T08:51:25.090Z,49.08
2022-08-14T08:56:30.268Z,50.51
2022-08-14T09:01:25.186Z,50.02
2022-08-14T09:07:10.529Z,47.61
2022-08-14T09:11:24.995Z,47.44
2022-08-14T09:16:24.830Z,47.54
2022-08-14T09:21:30.962Z,45.63
2022-08-14T09:26:24.853Z,43.47
2022-08-14T09:31:23.789Z,44.41
2022-08-14T09:36:23.774Z,44.70
2022-08-14T09:41:23.733Z,45.29
2022-08-14T09:46:25.815Z,45.78
2022-08-14T09:51:25.463Z,44.37
2022-08-14T09:56:30.147Z,43.46
2022-08-14T10:01:24.729Z,43.48
2022-08-14T10:06:23.497Z,41.55
2022-08-14T10:11:23.979Z,42.43
2022-08-14T10:16:27.245Z,42.21
2022-08-14T10:21:24.347Z,42.02
2022-08-14T10:26:28.413Z,41.29
2022-08-14T10:31:25.341Z,40.74
2022-08-14T10:36:35.162Z,40.78
2022-08-14T10:41:24.258Z,41.62
2022-08-14T10:47:40.340Z,41.68
2022-08-14T10:51:24.095Z,41.11
2022-08-14T10:56:34.249Z,42.45
2022-08-14T11:01:24.010Z,40.72
2022-08-14T11:06:24.677Z,41.56
2022-08-14T11:11:22.979Z,41.02
2022-08-14T11:16:22.870Z,40.70
2022-08-14T11:21:22.841Z,40.37
2022-08-14T11:26:22.770Z,39.65
2022-08-14T11:31:24.248Z,39.36
2022-08-14T11:36:22.689Z,38.77
2022-08-14T11:41:22.646Z,39.29
2022-08-14T11:46:29.534Z,39.94
2022-08-14T11:51:23.939Z,41.45
2022-08-14T11:56:25.365Z,40.50
2022-08-14T12:01:23.433Z,39.22
2022-08-14T12:06:29.490Z,39.43
2022-08-14T12:11:23.372Z,38.96
2022-08-14T12:16:22.781Z,38.30
2022-08-14T12:21:22.298Z,38.38
2022-08-14T12:26:39.226Z,37.99
2022-08-14T12:31:23.206Z,36.90
2022-08-14T12:36:22.129Z,38.09
2022-08-14T12:41:34.418Z,37.52
2022-08-14T12:46:27.116Z,36.51
2022-08-14T12:51:25.216Z,36.76
2022-08-14T12:56:33.905Z,37.37
2022-08-14T13:01:23.021Z,36.10
2022-08-14T13:06:21.903Z,36.29
2022-08-14T13:11:23.988Z,37.70
2022-08-14T13:16:37.768Z,37.83
2022-08-14T13:21:22.829Z,37.90
2022-08-14T13:26:21.725Z,36.98
2022-08-14T13:31:24.022Z,37.65
2022-08-14T13:36:24.182Z,37.57
2022-08-14T13:41:27.605Z,38.53
2022-08-14T13:46:25.740Z,38.92
2022-08-14T13:51:22.507Z,36.63
2022-08-14T13:56:26.462Z,38.42
2022-08-14T14:01:22.435Z,39.04
2022-08-14T14:06:21.456Z,39.64
2022-08-14T14:11:21.300Z,38.94
2022-08-14T14:16:25.943Z,37.83
2022-08-14T14:21:22.221Z,38.28
2022-08-14T14:26:23.852Z,37.29
2022-08-14T14:31:21.135Z,36.51
2022-08-14T14:36:21.753Z,36.65
2022-08-14T14:41:21.105Z,37.45
2022-08-14T14:46:20.984Z,38.04
2022-08-14T14:51:20.949Z,37.81
2022-08-14T14:56:51.278Z,36.94
2022-08-14T15:01:21.900Z,37.85
2022-08-14T15:06:20.911Z,37.81
2022-08-14T15:11:21.790Z,37.55
2022-08-14T15:16:20.747Z,37.67
2022-08-14T15:21:20.785Z,39.37
2022-08-14T15:26:23.915Z,38.68
2022-08-14T15:31:21.578Z,58.15
2022-08-14T15:36:25.662Z,53.94
2022-08-14T15:41:21.569Z,46.17
2022-08-14T15:46:41.061Z,45.79
2022-08-14T15:51:26.029Z,61.71
2022-08-14T15:56:33.020Z,42.55
2022-08-14T16:01:43.523Z,55.99
2022-08-14T16:06:21.200Z,55.99
2022-08-14T16:11:20.153Z,46.58
2022-08-14T16:16:47.076Z,55.89
2022-08-14T16:21:21.071Z,47.83
2022-08-14T16:26:20.027Z,43.43
2022-08-14T16:31:20.030Z,43.88
2022-08-14T16:36:31.445Z,44.55
2022-08-14T16:41:22.059Z,45.83
2022-08-14T16:46:22.403Z,45.53
2022-08-14T16:51:19.755Z,43.59
2022-08-14T16:56:23.620Z,45.79
2022-08-14T17:01:24.394Z,54.69
2022-08-14T17:06:30.729Z,55.73
2022-08-14T17:11:20.515Z,60.31
2022-08-14T17:16:24.692Z,62.74
2022-08-14T17:21:25.250Z,60.31
2022-08-14T17:26:20.391Z,62.21
2022-08-14T17:31:19.318Z,64.39
2022-08-14T17:36:21.030Z,65.80
2022-08-14T17:41:19.233Z,64.15
2022-08-14T17:46:19.196Z,64.84
2022-08-14T17:51:23.751Z,68.63
2022-08-14T17:56:20.066Z,70.45
2022-08-14T18:01:23.632Z,71.14
2022-08-14T18:06:38.626Z,72.46
2022-08-14T18:11:19.997Z,73.02
2022-08-14T18:16:19.781Z,74.41
2022-08-14T18:21:41.536Z,74.55
2022-08-14T18:26:37.208Z,74.55
2022-08-14T18:31:19.717Z,75.18
2022-08-14T18:36:47.167Z,74.68
2022-08-14T18:41:19.570Z,74.82
2022-08-14T18:47:00.552Z,75.01
2022-08-14T18:51:19.463Z,75.74
2022-08-14T18:56:20.010Z,76.25
2022-08-14T19:01:18.448Z,75.38
2022-08-14T19:06:18.350Z,72.74
2022-08-14T19:11:18.267Z,70.29
2022-08-14T19:16:18.441Z,71.68
2022-08-14T19:21:18.256Z,74.26
2022-08-14T19:26:34.096Z,75.29
2022-08-14T19:32:29.472Z,75.63
2022-08-14T19:37:29.476Z,75.33
2022-08-14T19:42:30.853Z,75.07
2022-08-14T19:47:38.830Z,73.38
2022-08-14T19:52:35.340Z,73.38
2022-08-14T19:57:30.200Z,72.52
2022-08-14T20:02:30.013Z,71.81
2022-08-14T20:07:59.508Z,71.12
2022-08-14T20:12:36.419Z,72.91
2022-08-14T20:17:29.986Z,76.79
2022-08-14T20:22:37.167Z,77.43
2022-08-14T20:27:33.074Z,77.03
2022-08-14T20:32:29.820Z,76.97
2022-08-14T20:37:28.805Z,78.07
2022-08-14T20:42:28.760Z,78.20
2022-08-14T20:47:28.740Z,78.14
2022-08-14T20:52:29.699Z,77.84
2022-08-14T20:57:28.610Z,77.18
2022-08-14T21:02:34.515Z,76.08
2022-08-14T21:07:36.524Z,75.68
2022-08-14T21:12:33.670Z,76.18
2022-08-14T21:17:29.359Z,76.72
2022-08-14T21:22:28.391Z,77.02
2022-08-14T21:27:29.242Z,77.32
2022-08-14T21:32:29.174Z,77.02
2022-08-14T21:37:29.873Z,76.86
2022-08-14T21:42:28.173Z,77.15
2022-08-14T21:47:28.004Z,77.29
2022-08-14T21:52:52.048Z,77.79
2022-08-14T21:57:55.926Z,78.63
2022-08-14T22:02:32.947Z,79.63
2022-08-14T22:07:29.379Z,78.97
2022-08-14T22:12:45.298Z,78.86
2022-08-14T22:17:32.184Z,79.00
2022-08-14T22:22:27.728Z,79.21
2022-08-14T22:27:27.664Z,79.91
2022-08-14T22:32:35.023Z,79.74
2022-08-14T22:37:28.419Z,79.14
2022-08-14T22:42:27.510Z,80.04
2022-08-14T22:47:40.460Z,79.88
2022-08-14T22:52:33.029Z,79.98
2022-08-14T22:57:37.309Z,80.72
2022-08-14T23:02:30.355Z,81.02
2022-08-14T23:08:59.423Z,81.73
2022-08-14T23:12:29.453Z,81.76
2022-08-14T23:17:27.000Z,81.56
2022-08-14T23:22:26.948Z,82.26
2022-08-14T23:27:32.108Z,82.17
2022-08-14T23:32:27.817Z,81.70
2022-08-14T23:37:27.559Z,81.00
2022-08-14T23:42:40.248Z,80.70
2022-08-14T23:47:27.926Z,81.50
2022-08-14T23:52:51.278Z,81.20
2022-08-14T23:57:30.508Z,82.64
